Time;durP1;ratioP1;P1;durP2;ratioP2;P2;SDS_P1;SDS_P2;PMS_P1;PMS_P2;Temp;Humidity;BMP_temperature;BMP_pressure;BME280_temperature;BME280_humidity;BME280_pressure;Samples;Min_cycle;Max_cycle;Signal;HPM_P1;HPM_P2
2024/01/17 09:04:19;;;;;;;;;20.25;16.25;;;;;2.47;100.00;98469.41;5135697;22;46214;-73
2024/01/17 09:06:44;;;;;;;;;15.75;15.75;;;;;2.41;100.00;98445.81;4996191;28;45487;-73
2024/01/17 09:09:12;;;;;;;;;19.50;17.00;;;;;2.54;100.00;98459.94;4997448;28;45412;-73
2024/01/17 09:11:38;;;;;;;;;27.75;25.50;;;;;2.46;100.00;98441.56;5002043;28;45246;-72
2024/01/17 09:14:03;;;;;;;;;21.75;19.00;;;;;2.42;100.00;98424.97;4996740;28;45086;-74
2024/01/17 09:16:30;;;;;;;;;30.00;18.50;;;;;2.56;100.00;98453.91;4998590;28;56598;-72
2024/01/17 09:18:56;;;;;;;;;19.25;17.50;;;;;2.62;100.00;98442.72;4973192;28;45579;-72
2024/01/17 09:21:21;;;;;;;;;26.25;21.25;;;;;2.59;100.00;98447.88;4981682;28;45575;-72
2024/01/17 09:23:46;;;;;;;;;22.75;19.50;;;;;2.60;100.00;98441.81;4998531;28;45503;-72
2024/01/17 09:26:12;;;;;;;;;20.50;19.50;;;;;2.48;100.00;98416.38;4999975;28;45365;-73
2024/01/17 09:28:37;;;;;;;;;18.75;17.00;;;;;2.53;100.00;98419.97;4998480;28;45436;-72
2024/01/17 09:31:03;;;;;;;;;23.50;21.75;;;;;2.54;100.00;98413.88;4999553;28;45271;-72
2024/01/17 09:33:28;;;;;;;;;24.00;19.75;;;;;2.65;100.00;98427.13;4980839;28;45651;-72
2024/01/17 09:35:53;;;;;;;;;24.25;18.50;;;;;2.64;100.00;98414.94;4999725;28;45362;-72
2024/01/17 09:38:19;;;;;;;;;24.75;19.25;;;;;2.61;100.00;98404.47;4999670;28;45428;-73
2024/01/17 09:40:49;;;;;;;;;38.75;33.75;;;;;2.72;100.00;98418.56;4981626;28;45264;-73
2024/01/17 09:43:17;;;;;;;;;26.50;23.00;;;;;2.77;100.00;98416.00;4998657;28;45470;-74
2024/01/17 09:45:43;;;;;;;;;20.25;18.50;;;;;2.70;100.00;98388.97;4999290;28;45342;-73
2024/01/17 09:48:12;;;;;;;;;24.00;22.00;;;;;2.82;100.00;98401.31;4979039;28;45585;-73
2024/01/17 09:50:37;;;;;;;;;23.75;18.50;;;;;2.81;100.00;98395.22;4999606;28;45415;-71
2024/01/17 09:53:11;;;;;;;;;20.00;19.25;;;;;2.94;100.00;98411.06;4980594;28;46025;-73
2024/01/17 09:55:38;;;;;;;;;22.25;18.25;;;;;2.83;100.00;98384.81;4996609;28;46969;-72
2024/01/17 09:58:05;;;;;;;;;19.50;18.75;;;;;2.95;100.00;98412.84;4980896;28;45544;-72
2024/01/17 10:00:31;;;;;;;;;22.00;21.00;;;;;2.89;100.00;98385.78;4981097;28;45400;-72
2024/01/17 10:02:57;;;;;;;;;26.75;21.50;;;;;2.92;100.00;98383.22;4998585;28;45302;-71
2024/01/17 10:05:26;;;;;;;;;22.75;17.50;;;;;2.80;100.00;98349.13;4978904;28;45622;-72
2024/01/17 10:07:52;;;;;;;;;28.75;20.00;;;;;2.78;100.00;98344.75;4981055;28;45334;-73
2024/01/17 10:10:21;;;;;;;;;27.75;21.25;;;;;2.85;100.00;98383.97;4980292;28;45341;-72
2024/01/17 10:12:47;;;;;;;;;22.50;20.00;;;;;2.91;100.00;98359.72;4997853;28;45445;-73
2024/01/17 10:15:13;;;;;;;;;22.00;18.50;;;;;2.94;100.00;98356.28;4998606;28;45455;-73
2024/01/17 10:17:39;;;;;;;;;16.00;10.25;;;;;2.94;100.00;98361.50;4998452;28;45437;-74
2024/01/17 10:20:04;;;;;;;;;23.75;21.50;;;;;2.89;100.00;98348.41;4980859;28;45334;-73
2024/01/17 10:22:31;;;;;;;;;21.00;14.50;;;;;2.81;100.00;98327.41;4996159;28;45854;-74
2024/01/17 10:24:59;;;;;;;;;24.75;21.50;;;;;2.83;100.00;98325.69;4981501;28;46914;-73
2024/01/17 10:27:27;;;;;;;;;21.50;14.00;;;;;2.75;100.00;98302.97;4980376;28;45346;-72
2024/01/17 10:29:52;;;;;;;;;25.50;22.25;;;;;2.77;100.00;98319.50;4979260;28;45003;-71
2024/01/17 10:32:18;;;;;;;;;27.00;21.00;;;;;2.73;100.00;98296.84;4997984;28;45459;-72
2024/01/17 10:34:44;;;;;;;;;29.75;25.25;;;;;2.88;100.00;98328.38;4980627;28;45608;-74
2024/01/17 10:37:11;;;;;;;;;18.00;18.00;;;;;2.91;100.00;98331.00;4997299;28;45542;-73
2024/01/17 10:39:37;;;;;;;;;21.75;18.75;;;;;2.80;100.00;98324.75;4981204;28;45307;-72
2024/01/17 10:42:05;;;;;;;;;18.00;15.25;;;;;2.87;100.00;98326.63;4997881;28;56712;-73
2024/01/17 10:44:31;;;;;;;;;21.75;19.75;;;;;2.96;100.00;98333.69;4997846;28;47143;-74
2024/01/17 10:46:56;;;;;;;;;21.75;17.50;;;;;2.95;100.00;98335.44;4998580;28;45274;-73
2024/01/17 10:49:23;;;;;;;;;21.50;18.25;;;;;2.95;100.00;98327.63;4979786;28;45461;-73
2024/01/17 10:52:02;;;;;;;;;17.75;17.75;;;;;2.86;100.00;98307.47;4993313;28;44857;-73
2024/01/17 10:54:42;;;;;;;;;23.00;20.75;;;;;2.94;100.00;98302.38;4994691;28;47387;-73
2024/01/17 10:57:10;;;;;;;;;25.50;21.75;;;;;2.92;100.00;98296.25;4987752;28;45541;-75
2024/01/17 10:59:41;;;;;;;;;21.25;18.75;;;;;2.99;100.00;98287.66;4993726;28;45239;-74
2024/01/17 11:02:16;;;;;;;;;22.50;19.25;;;;;2.94;100.00;98275.38;4993116;28;45927;-73
2024/01/17 11:04:44;;;;;;;;;20.25;19.00;;;;;3.09;100.00;98286.94;4990298;28;45482;-74
2024/01/17 11:07:12;;;;;;;;;20.25;17.00;;;;;3.07;100.00;98291.25;4998903;28;45470;-73
2024/01/17 11:09:39;;;;;;;;;22.75;17.75;;;;;3.08;100.00;98281.66;4999951;28;45419;-73
2024/01/17 11:12:06;;;;;;;;;20.25;16.00;;;;;3.03;100.00;98272.94;4999173;28;46548;-73
2024/01/17 11:14:32;;;;;;;;;21.00;20.00;;;;;2.97;100.00;98263.28;5001571;28;46600;-73
2024/01/17 11:17:03;;;;;;;;;18.00;17.50;;;;;3.14;100.00;98279.16;4994969;28;45509;-73
2024/01/17 11:19:32;;;;;;;;;21.25;19.00;;;;;3.13;100.00;98278.25;5001454;28;45265;-72
2024/01/17 11:22:00;;;;;;;;;22.25;17.25;;;;;3.16;100.00;98267.00;4993229;28;45454;-72
2024/01/17 11:24:42;;;;;;;;;25.25;20.25;;;;;3.20;100.00;98249.66;5000688;28;45341;-72
2024/01/17 11:27:29;;;;;;;;;31.00;23.50;;;;;3.24;100.00;98257.53;5000613;28;45359;-73
2024/01/17 11:30:17;;;;;;;;;21.25;18.75;;;;;3.21;100.00;98231.38;5017824;28;45388;-72
2024/01/17 11:33:06;;;;;;;;;21.75;20.25;;;;;3.17;100.00;98220.91;4999425;28;47268;-72
2024/01/17 11:35:46;;;;;;;;;21.75;15.75;;;;;3.30;100.00;98222.78;4996820;28;45523;-72
2024/01/17 11:38:14;;;;;;;;;18.50;18.50;;;;;3.26;100.00;98210.56;4999383;28;46190;-72
2024/01/17 11:40:41;;;;;;;;;19.00;16.00;;;;;3.25;100.00;98200.97;5000106;28;45331;-72
2024/01/17 11:43:08;;;;;;;;;23.00;18.75;;;;;3.27;100.00;98201.88;4998881;28;45332;-72
2024/01/17 11:45:36;;;;;;;;;17.75;15.75;;;;;3.33;100.00;98204.53;4994153;28;45639;-72
2024/01/17 11:48:20;;;;;;;;;15.00;14.00;;;;;3.23;100.00;98195.75;4996531;28;45500;-72
2024/01/17 11:51:01;;;;;;;;;16.50;15.50;;;;;3.39;100.00;98208.94;4997687;28;45578;-72
2024/01/17 11:53:28;;;;;;;;;18.50;16.25;;;;;3.37;100.00;98201.13;4999680;28;45463;-72
2024/01/17 11:55:56;;;;;;;;;22.50;17.75;;;;;3.38;100.00;98202.88;5000224;28;46469;-72
2024/01/17 11:58:22;;;;;;;;;21.50;13.75;;;;;3.42;100.00;98202.06;4998743;28;45374;-72
2024/01/17 12:00:51;;;;;;;;;15.00;13.50;;;;;3.46;100.00;98196.00;5001173;28;45744;-72
2024/01/17 12:03:31;;;;;;;;;22.25;18.25;;;;;3.44;100.00;98186.38;5015951;28;46140;-72
2024/01/17 12:05:57;;;;;;;;;17.75;14.75;;;;;3.46;100.00;98196.00;4990787;28;45228;-72
2024/01/17 12:08:24;;;;;;;;;14.50;12.75;;;;;3.37;100.00;98190.69;5000806;28;44782;-72
2024/01/17 12:10:56;;;;;;;;;11.75;10.75;;;;;3.39;100.00;98186.34;5001195;28;45317;-72
2024/01/17 12:13:23;;;;;;;;;22.75;19.25;;;;;3.47;100.00;98191.63;4999136;28;46131;-72
2024/01/17 12:15:52;;;;;;;;;15.25;12.50;;;;;3.51;100.00;98193.44;5001144;28;46148;-72
2024/01/17 12:18:20;;;;;;;;;13.75;11.00;;;;;3.41;100.00;98175.91;4999924;28;45353;-72
2024/01/17 12:20:47;;;;;;;;;14.75;12.75;;;;;3.38;100.00;98158.47;5000827;28;45326;-72
2024/01/17 12:23:12;;;;;;;;;11.50;11.50;;;;;3.51;100.00;98181.25;5000871;28;45257;-70
2024/01/17 12:25:38;;;;;;;;;14.25;10.00;;;;;3.54;100.00;98183.88;5000967;28;45357;-71
2024/01/17 12:28:04;;;;;;;;;21.50;15.25;;;;;3.46;100.00;98164.66;5000873;28;45230;-71
2024/01/17 12:30:30;;;;;;;;;10.50;10.50;;;;;3.49;100.00;98169.91;5001040;28;45446;-71
2024/01/17 12:32:56;;;;;;;;;14.75;12.75;;;;;3.67;100.00;98174.44;5000290;28;45487;-71
2024/01/17 12:35:22;;;;;;;;;17.50;14.25;;;;;3.70;100.00;98169.25;5001009;28;45443;-71
2024/01/17 12:37:48;;;;;;;;;18.50;13.25;;;;;3.50;100.00;98137.72;5008908;28;45384;-71
2024/01/17 12:40:13;;;;;;;;;19.25;17.00;;;;;3.74;100.00;98163.19;4999559;28;45369;-71
2024/01/17 12:42:39;;;;;;;;;22.50;20.50;;;;;3.79;100.00;98160.63;4998860;28;45416;-72
2024/01/17 12:45:06;;;;;;;;;21.00;19.25;;;;;3.80;100.00;98146.69;4999615;28;45379;-71
2024/01/17 12:47:31;;;;;;;;;21.75;18.50;;;;;3.85;100.00;98160.66;4998231;28;45572;-71
2024/01/17 12:49:57;;;;;;;;;23.00;20.75;;;;;3.95;100.00;98170.34;5001160;28;45242;-72
2024/01/17 12:52:23;;;;;;;;;22.50;20.50;;;;;3.94;100.00;98181.63;5000429;28;45507;-72
2024/01/17 12:54:48;;;;;;;;;19.75;19.25;;;;;3.99;100.00;98182.56;5000309;28;46185;-73
2024/01/17 12:57:14;;;;;;;;;25.50;23.50;;;;;4.07;100.00;98202.66;4999526;28;45405;-72
2024/01/17 12:59:40;;;;;;;;;16.75;16.50;;;;;4.06;100.00;98183.47;4998478;28;45384;-72
2024/01/17 13:02:14;;;;;;;;;17.75;15.25;;;;;4.09;100.00;98191.34;4999054;28;45361;-72
2024/01/17 13:04:39;;;;;;;;;23.00;20.50;;;;;4.13;100.00;98197.47;4989717;28;45630;-72
2024/01/17 13:07:05;;;;;;;;;35.75;30.00;;;;;4.13;100.00;98189.63;4994259;28;45342;-73
2024/01/17 13:09:31;;;;;;;;;41.50;33.00;;;;;4.05;100.00;98168.66;5000548;28;44779;-73
2024/01/17 13:11:57;;;;;;;;;34.75;28.75;;;;;4.24;100.00;98204.53;4999279;28;45448;-72
2024/01/17 13:14:24;;;;;;;;;26.50;26.50;;;;;4.25;100.00;98200.19;4978306;28;47155;-72
2024/01/17 13:16:50;;;;;;;;;20.50;19.50;;;;;4.31;100.00;98192.38;4995816;28;46313;-73
2024/01/17 13:19:16;;;;;;;;;20.25;16.00;;;;;4.31;100.00;98188.88;4999749;28;45214;-72
2024/01/17 13:21:42;;;;;;;;;17.25;16.75;;;;;4.41;100.00;98203.78;4982577;28;45899;-72
2024/01/17 13:24:08;;;;;;;;;19.75;15.50;;;;;4.45;100.00;98195.09;4999723;28;45689;-72
2024/01/17 13:26:35;;;;;;;;;18.75;17.00;;;;;4.36;100.00;98164.50;5000310;28;45219;-72
2024/01/17 13:29:05;;;;;;;;;21.50;17.00;;;;;4.53;100.00;98182.94;4999614;28;45492;-72
2024/01/17 13:31:32;;;;;;;;;27.00;21.50;;;;;4.43;100.00;98168.94;4984726;28;46370;-71
2024/01/17 13:33:58;;;;;;;;;23.25;19.00;;;;;4.60;100.00;98189.97;4999138;28;45416;-72
2024/01/17 13:36:27;;;;;;;;;68.00;54.25;;;;;4.56;100.00;98182.06;4982252;28;45326;-71
2024/01/17 13:38:52;;;;;;;;;83.00;60.33;;;;;4.63;100.00;98181.25;4999522;28;45451;-72
2024/01/17 13:41:21;;;;;;;;;107.67;94.67;;;;;4.55;100.00;98162.91;5000404;28;45259;-72
2024/01/17 13:43:47;;;;;;;;;78.00;63.33;;;;;4.70;100.00;98170.84;4999422;28;45249;-72
2024/01/17 13:46:12;;;;;;;;;20.25;20.25;;;;;4.62;100.00;98161.19;4999691;28;45427;-72
2024/01/17 13:48:38;;;;;;;;;32.50;27.25;;;;;4.75;100.00;98176.06;4999117;28;45235;-72
2024/01/17 13:51:04;;;;;;;;;28.00;24.50;;;;;4.74;100.00;98186.56;4981972;28;46733;-72
2024/01/17 13:53:32;;;;;;;;;27.50;23.50;;;;;4.63;100.00;98179.50;4996755;28;45404;-72
2024/01/17 13:55:59;;;;;;;;;26.00;24.00;;;;;4.74;100.00;98173.47;4999866;28;45362;-71
2024/01/17 13:58:27;;;;;;;;;27.75;25.00;;;;;4.68;100.00;98156.00;4998863;28;45437;-72
2024/01/17 14:00:57;;;;;;;;;28.00;26.75;;;;;4.81;100.00;98173.50;4999231;28;45199;-72
2024/01/17 14:03:26;;;;;;;;;40.00;37.25;;;;;4.83;100.00;98182.22;4997224;28;45512;-72
2024/01/17 14:05:52;;;;;;;;;50.25;39.50;;;;;4.83;100.00;98192.69;4973088;28;46255;-74
2024/01/17 14:08:17;;;;;;;;;30.50;27.50;;;;;4.77;100.00;98174.34;4997042;28;45437;-71
2024/01/17 14:10:42;;;;;;;;;34.25;30.25;;;;;4.76;100.00;98192.66;4978728;28;45830;-70
2024/01/17 14:13:08;;;;;;;;;36.75;29.50;;;;;4.71;100.00;98190.03;4998066;28;45203;-71
2024/01/17 14:15:33;;;;;;;;;39.50;35.00;;;;;4.65;100.00;98200.44;4981236;28;45262;-70
2024/01/17 14:17:59;;;;;;;;;31.50;30.50;;;;;4.61;100.00;98203.91;4997612;28;45479;-71
2024/01/17 14:20:27;;;;;;;;;45.25;37.00;;;;;4.52;100.00;98196.88;4998069;28;44905;-71
2024/01/17 14:22:53;;;;;;;;;30.25;27.75;;;;;4.37;100.00;98192.44;4997749;28;45692;-72
2024/01/17 14:25:19;;;;;;;;;23.75;21.75;;;;;4.40;100.00;98218.59;4977841;28;45350;-72
2024/01/17 14:27:45;;;;;;;;;18.50;16.00;;;;;4.23;100.00;98199.31;4999167;28;45319;-73
2024/01/17 14:30:12;;;;;;;;;30.75;25.50;;;;;4.28;100.00;98217.63;4998940;28;45259;-72
2024/01/17 14:32:38;;;;;;;;;20.00;16.50;;;;;4.22;100.00;98210.63;4996597;28;45695;-72
2024/01/17 14:35:03;;;;;;;;;20.25;16.50;;;;;4.17;100.00;98228.00;4998939;28;45477;-72
2024/01/17 14:37:29;;;;;;;;;23.75;20.00;;;;;4.10;100.00;98253.22;4999001;28;44751;-72
2024/01/17 14:39:54;;;;;;;;;25.50;25.00;;;;;4.06;100.00;98254.03;4998702;28;45296;-72
2024/01/17 14:42:23;;;;;;;;;17.00;15.50;;;;;3.83;100.00;98221.59;4997541;28;45306;-72
2024/01/17 14:44:48;;;;;;;;;29.25;26.00;;;;;3.79;100.00;98236.38;4981112;28;45390;-72
2024/01/17 14:47:14;;;;;;;;;28.25;25.25;;;;;3.84;100.00;98242.53;4980773;28;45827;-72
2024/01/17 14:49:40;;;;;;;;;26.00;23.50;;;;;3.87;100.00;98254.75;4998232;28;45280;-72
2024/01/17 14:52:05;;;;;;;;;27.25;23.75;;;;;3.95;100.00;98250.44;4998147;28;45937;-72
2024/01/17 14:54:30;;;;;;;;;23.75;23.75;;;;;3.91;100.00;98260.00;4998177;28;45168;-72
2024/01/17 14:56:56;;;;;;;;;29.50;27.50;;;;;3.96;100.00;98268.78;4998961;28;45223;-72
2024/01/17 14:59:22;;;;;;;;;23.75;20.00;;;;;3.72;100.00;98231.94;4997942;28;44837;-72
2024/01/17 15:01:47;;;;;;;;;20.25;18.75;;;;;3.88;100.00;98246.03;4998545;28;45326;-72
2024/01/17 15:04:13;;;;;;;;;23.25;21.00;;;;;3.99;100.00;98263.56;4993352;28;45575;-72
2024/01/17 15:06:39;;;;;;;;;24.25;21.25;;;;;3.96;100.00;98267.91;4997660;28;45253;-71
2024/01/17 15:09:12;;;;;;;;;21.00;21.00;;;;;3.91;100.00;98269.59;4978327;28;45862;-71
2024/01/17 15:11:42;;;;;;;;;25.00;21.25;;;;;4.00;100.00;98282.75;4995554;28;46557;-71
2024/01/17 15:14:08;;;;;;;;;22.50;20.00;;;;;3.92;100.00;98266.09;4996180;28;45299;-70
2024/01/17 15:16:33;;;;;;;;;16.25;13.75;;;;;3.91;100.00;98256.53;4980387;28;45421;-71
2024/01/17 15:18:59;;;;;;;;;15.00;11.75;;;;;4.00;100.00;98298.41;4997513;28;45360;-71
2024/01/17 15:21:24;;;;;;;;;11.75;9.00;;;;;3.89;100.00;98286.97;4995339;28;54866;-71
2024/01/17 15:23:50;;;;;;;;;10.00;9.50;;;;;3.92;100.00;98287.91;4993493;28;46615;-71
2024/01/17 15:26:15;;;;;;;;;12.00;10.00;;;;;3.89;100.00;98282.63;4994981;28;56406;-71
2024/01/17 15:28:40;;;;;;;;;9.75;7.00;;;;;3.95;100.00;98290.56;4995995;28;45149;-72
2024/01/17 15:31:06;;;;;;;;;9.00;9.00;;;;;3.94;100.00;98288.78;4997165;28;45252;-72
2024/01/17 15:33:32;;;;;;;;;12.00;11.75;;;;;3.96;100.00;98301.88;4979514;28;45358;-71
2024/01/17 15:35:57;;;;;;;;;12.00;10.25;;;;;3.84;100.00;98288.66;4998301;28;45315;-71
2024/01/17 15:38:23;;;;;;;;;13.25;11.50;;;;;3.78;100.00;98263.34;4996951;28;45421;-71
2024/01/17 15:40:55;;;;;;;;;13.00;11.00;;;;;3.98;100.00;98305.41;4998060;28;45262;-71
2024/01/17 15:43:23;;;;;;;;;11.00;10.75;;;;;3.88;100.00;98325.31;4997842;28;45385;-71
2024/01/17 15:45:49;;;;;;;;;14.50;13.50;;;;;3.98;100.00;98357.66;4986973;28;45338;-72
2024/01/17 15:48:15;;;;;;;;;15.00;12.25;;;;;3.78;100.00;98334.78;4997489;28;47752;-72
2024/01/17 15:50:40;;;;;;;;;9.75;9.75;;;;;3.99;100.00;98381.19;4980105;28;47057;-72
2024/01/17 15:53:06;;;;;;;;;13.75;13.75;;;;;4.01;100.00;98368.16;4979746;28;45633;-72
2024/01/17 15:55:31;;;;;;;;;16.00;14.50;;;;;3.89;100.00;98350.56;4983146;28;45334;-71
2024/01/17 15:57:56;;;;;;;;;16.25;11.00;;;;;3.95;100.00;98376.81;5001001;28;45466;-72
2024/01/17 16:00:21;;;;;;;;;14.50;14.50;;;;;3.88;100.00;98369.72;5001564;28;47883;-72
2024/01/17 16:02:47;;;;;;;;;34.50;33.00;;;;;3.96;100.00;98402.06;4982800;28;45484;-71
2024/01/17 16:05:12;;;;;;;;;27.25;21.75;;;;;3.91;100.00;98401.13;5001300;28;49509;-72
2024/01/17 16:07:37;;;;;;;;;15.25;13.50;;;;;3.93;100.00;98406.38;4997194;28;45350;-71
2024/01/17 16:10:04;;;;;;;;;15.75;13.00;;;;;3.89;100.00;98389.75;4997596;28;46273;-72
2024/01/17 16:12:29;;;;;;;;;25.00;23.25;;;;;3.89;100.00;98405.44;4993556;28;45472;-73
2024/01/17 16:14:55;;;;;;;;;15.75;14.75;;;;;3.84;100.00;98399.31;4987229;28;45337;-73
2024/01/17 16:17:21;;;;;;;;;16.00;14.75;;;;;3.78;100.00;98402.72;4994784;28;44881;-73
2024/01/17 16:19:46;;;;;;;;;25.50;22.00;;;;;3.78;100.00;98407.06;4997483;28;46267;-72
2024/01/17 16:22:11;;;;;;;;;21.00;18.00;;;;;3.65;100.00;98400.81;5001003;28;45424;-72
2024/01/17 16:24:40;;;;;;;;;24.75;23.50;;;;;3.75;100.00;98430.53;5001596;28;45229;-72
2024/01/17 16:27:06;;;;;;;;;24.50;20.00;;;;;3.57;100.00;98407.66;4999661;28;45910;-72
2024/01/17 16:29:31;;;;;;;;;24.00;20.75;;;;;3.66;100.00;98417.34;5001140;28;45333;-71
2024/01/17 16:31:56;;;;;;;;;66.33;54.00;;;;;3.71;100.00;98433.97;5000976;28;45328;-72
2024/01/17 16:34:22;;;;;;;;;93.00;77.00;;;;;3.52;100.00;98414.56;5000470;28;45265;-72
2024/01/17 16:36:47;;;;;;;;;28.25;25.00;;;;;3.55;100.00;98418.06;4983305;28;46545;-72
2024/01/17 16:39:17;;;;;;;;;73.67;59.00;;;;;3.70;100.00;98453.13;5000623;28;45273;-71
2024/01/17 16:41:42;;;;;;;;;63.00;51.33;;;;;3.70;100.00;98464.44;4984300;28;45289;-72
2024/01/17 16:44:09;;;;;;;;;52.75;46.25;;;;;3.72;100.00;98481.00;5000772;28;44740;-72
2024/01/17 16:46:34;;;;;;;;;24.00;20.25;;;;;3.72;100.00;98472.28;4999263;28;45235;-72
2024/01/17 16:49:00;;;;;;;;;17.00;13.25;;;;;3.70;100.00;98485.34;5000275;28;46461;-72
2024/01/17 16:51:25;;;;;;;;;29.50;27.50;;;;;3.58;100.00;98473.00;4983086;28;45387;-72
2024/01/17 16:53:50;;;;;;;;;15.50;15.50;;;;;3.65;100.00;98480.91;4979572;28;45354;-72
2024/01/17 16:56:19;;;;;;;;;12.00;12.00;;;;;3.68;100.00;98491.41;4981115;28;46321;-72
2024/01/17 16:58:45;;;;;;;;;21.75;19.25;;;;;3.61;100.00;98486.94;4991062;28;48198;-72
2024/01/17 17:01:10;;;;;;;;;21.00;20.00;;;;;3.61;100.00;98487.81;5000489;28;45296;-72
2024/01/17 17:03:35;;;;;;;;;35.00;27.75;;;;;3.51;100.00;98488.56;5000046;28;45372;-71
2024/01/17 17:06:01;;;;;;;;;24.75;22.00;;;;;3.59;100.00;98506.09;5000029;28;46298;-71
2024/01/17 17:08:26;;;;;;;;;22.50;18.75;;;;;3.51;100.00;98507.69;4998741;28;50944;-71
2024/01/17 17:10:52;;;;;;;;;17.75;15.75;;;;;3.54;100.00;98497.28;4998904;28;45234;-72
2024/01/17 17:13:17;;;;;;;;;22.00;18.25;;;;;3.53;100.00;98526.03;5000408;28;45196;-72
2024/01/17 17:15:43;;;;;;;;;16.25;15.00;;;;;3.46;100.00;98511.97;5000676;28;45481;-72
2024/01/17 17:18:14;;;;;;;;;22.00;20.00;;;;;3.45;100.00;98538.94;4998457;28;46843;-71
2024/01/17 17:20:39;;;;;;;;;23.25;20.75;;;;;3.40;100.00;98526.69;5000205;28;45282;-71
2024/01/17 17:23:05;;;;;;;;;21.00;14.50;;;;;3.33;100.00;98513.53;5000566;28;45422;-71
2024/01/17 17:25:30;;;;;;;;;35.75;34.00;;;;;3.42;100.00;98525.84;5000207;28;45365;-72
2024/01/17 17:27:55;;;;;;;;;16.25;15.00;;;;;3.44;100.00;98528.47;4982086;28;46914;-72
2024/01/17 17:30:21;;;;;;;;;54.25;41.75;;;;;3.43;100.00;98529.34;4999898;28;45231;-72
2024/01/17 17:32:46;;;;;;;;;20.25;17.75;;;;;3.44;100.00;98545.00;4999623;28;45302;-72
2024/01/17 17:35:12;;;;;;;;;22.75;22.75;;;;;3.31;100.00;98527.41;4982337;28;46139;-70
2024/01/17 17:37:37;;;;;;;;;31.50;27.50;;;;;3.42;100.00;98557.19;5000017;28;45325;-71
2024/01/17 17:40:06;;;;;;;;;32.25;31.75;;;;;3.42;100.00;98554.56;4999140;28;49796;-71
2024/01/17 17:42:31;;;;;;;;;61.00;48.00;;;;;3.35;100.00;98548.34;4989494;28;45329;-71
2024/01/17 17:44:57;;;;;;;;;28.00;24.75;;;;;3.40;100.00;98552.78;4991131;28;45448;-71
2024/01/17 17:47:22;;;;;;;;;43.50;39.50;;;;;3.31;100.00;98532.63;4985287;28;47778;-72
2024/01/17 17:49:48;;;;;;;;;89.67;68.33;;;;;3.42;100.00;98553.66;4980665;28;45418;-71
2024/01/17 17:52:14;;;;;;;;;298.00;239.75;;;;;3.28;100.00;98532.59;4984137;28;45397;-72
2024/01/17 17:54:39;;;;;;;;;97.67;69.67;;;;;3.25;100.00;98536.00;4995461;28;45367;-71
2024/01/17 17:57:05;;;;;;;;;30.50;24.50;;;;;3.36;100.00;98583.16;4983743;28;45555;-71
2024/01/17 17:59:31;;;;;;;;;57.25;42.00;;;;;3.33;100.00;98573.56;4972369;28;45266;-71
2024/01/17 18:01:56;;;;;;;;;39.75;36.00;;;;;3.31;100.00;98562.22;4992463;28;45285;-71
2024/01/17 18:04:26;;;;;;;;;67.00;51.33;;;;;3.28;100.00;98554.34;4990543;28;45682;-71
2024/01/17 18:06:52;;;;;;;;;51.75;41.50;;;;;3.25;100.00;98554.28;5015292;28;47263;-71
2024/01/17 18:09:18;;;;;;;;;59.50;48.00;;;;;3.31;100.00;98574.41;4999271;28;45310;-72
2024/01/17 18:11:43;;;;;;;;;31.00;26.00;;;;;3.23;100.00;98562.94;4999828;28;45340;-71
2024/01/17 18:14:09;;;;;;;;;40.75;33.00;;;;;3.25;100.00;98580.41;4999079;28;45459;-70
2024/01/17 18:16:34;;;;;;;;;26.50;24.00;;;;;3.11;100.00;98563.63;4998118;28;45443;-70
2024/01/17 18:18:59;;;;;;;;;31.25;26.75;;;;;3.19;100.00;98592.44;4998695;28;45469;-72
2024/01/17 18:21:25;;;;;;;;;21.00;20.50;;;;;3.10;100.00;98567.06;5000102;28;45288;-70
2024/01/17 18:23:51;;;;;;;;;29.50;27.25;;;;;3.08;100.00;98568.75;4998925;28;45309;-70
2024/01/17 18:26:20;;;;;;;;;27.50;24.25;;;;;3.04;100.00;98566.97;4999794;28;45396;-69
2024/01/17 18:28:49;;;;;;;;;65.67;51.67;;;;;3.06;100.00;98607.03;5014417;28;45161;-70
2024/01/17 18:31:14;;;;;;;;;48.50;40.75;;;;;3.08;100.00;98606.19;4999992;28;45438;-70
2024/01/17 18:33:39;;;;;;;;;35.75;32.75;;;;;3.07;100.00;98613.97;4998710;28;45428;-71
2024/01/17 18:36:06;;;;;;;;;59.25;46.75;;;;;2.91;100.00;98599.75;4999510;28;45460;-72
2024/01/17 18:38:32;;;;;;;;;341.00;270.50;;;;;3.01;100.00;98614.75;4998757;28;45396;-71
2024/01/17 18:40:58;;;;;;;;;57.00;45.00;;;;;2.94;100.00;98614.59;4999751;28;45223;-71
2024/01/17 18:43:24;;;;;;;;;43.00;41.00;;;;;2.84;100.00;98597.91;4997466;28;45175;-71
2024/01/17 18:45:50;;;;;;;;;111.25;100.00;;;;;2.98;100.00;98632.09;4999280;28;46008;-70
2024/01/17 18:48:18;;;;;;;;;330.00;279.00;;;;;2.96;100.00;98625.94;4998340;28;45442;-69
2024/01/17 18:50:44;;;;;;;;;94.33;70.00;;;;;2.93;100.00;98642.41;4999716;28;45296;-70
2024/01/17 18:53:09;;;;;;;;;43.75;39.00;;;;;2.81;100.00;98614.38;4998514;28;45323;-70
2024/01/17 18:55:34;;;;;;;;;77.67;60.00;;;;;2.89;100.00;98625.84;4997897;28;46601;-71
2024/01/17 18:58:00;;;;;;;;;73.00;53.00;;;;;2.92;100.00;98643.28;4998499;28;45376;-71
2024/01/17 19:00:26;;;;;;;;;79.67;59.67;;;;;2.75;100.00;98611.63;4999248;28;45258;-71
2024/01/17 19:02:51;;;;;;;;;56.00;44.33;;;;;2.79;100.00;98631.72;4997859;28;45441;-71
2024/01/17 19:05:17;;;;;;;;;91.00;68.00;;;;;2.68;100.00;98621.06;4999050;28;46236;-71
2024/01/17 19:07:43;;;;;;;;;30.50;27.75;;;;;2.84;100.00;98647.47;4998512;28;45171;-71
2024/01/17 19:10:09;;;;;;;;;109.00;95.50;;;;;2.85;100.00;98638.78;4999001;28;45282;-71
2024/01/17 19:12:35;;;;;;;;;122.75;110.25;;;;;2.57;100.00;98606.91;4998144;28;45536;-71
2024/01/17 19:15:00;;;;;;;;;43.25;36.00;;;;;2.58;100.00;98626.94;4981340;28;46890;-71
2024/01/17 19:17:28;;;;;;;;;81.67;67.00;;;;;2.63;100.00;98634.84;4998261;28;45525;-71
2024/01/17 19:19:55;;;;;;;;;71.33;59.33;;;;;2.72;100.00;98660.22;4981425;28;45352;-72
2024/01/17 19:22:20;;;;;;;;;233.50;204.75;;;;;2.71;100.00;98664.59;4998302;28;45569;-71
2024/01/17 19:24:50;;;;;;;;;50.25;45.25;;;;;2.66;100.00;98653.16;4998695;28;45455;-72
2024/01/17 19:27:20;;;;;;;;;73.67;57.00;;;;;2.71;100.00;98648.06;4998323;28;45406;-71
2024/01/17 19:29:46;;;;;;;;;33.50;30.00;;;;;2.69;100.00;98659.34;4984318;28;45294;-72
2024/01/17 19:32:11;;;;;;;;;37.50;36.75;;;;;2.61;100.00;98652.22;4983702;28;45293;-72
2024/01/17 19:34:36;;;;;;;;;49.00;40.75;;;;;2.61;100.00;98660.91;5001020;28;45536;-72
2024/01/17 19:37:05;;;;;;;;;59.75;42.75;;;;;2.61;100.00;98670.47;5001660;28;57964;-73
2024/01/17 19:39:31;;;;;;;;;79.67;59.67;;;;;2.64;100.00;98660.09;4979647;28;46366;-72
2024/01/17 19:41:56;;;;;;;;;59.25;44.75;;;;;2.56;100.00;98636.47;5001288;28;45360;-72
2024/01/17 19:44:22;;;;;;;;;63.75;43.50;;;;;2.60;100.00;98660.88;5001479;28;45494;-72
2024/01/17 19:46:48;;;;;;;;;311.50;249.50;;;;;2.52;100.00;98655.50;4984538;28;45633;-72
2024/01/17 19:49:14;;;;;;;;;55.25;45.00;;;;;2.65;100.00;98686.19;5001271;28;45541;-73
2024/01/17 19:51:39;;;;;;;;;72.33;55.67;;;;;2.63;100.00;98682.69;5001857;28;45220;-72
2024/01/17 19:54:04;;;;;;;;;76.33;60.00;;;;;2.48;100.00;98669.31;5001214;28;45267;-72
2024/01/17 19:56:30;;;;;;;;;52.33;43.67;;;;;2.52;100.00;98676.38;4984392;28;45337;-72
2024/01/17 19:58:55;;;;;;;;;247.75;212.75;;;;;2.53;100.00;98708.53;5001658;28;45259;-72
2024/01/17 20:01:21;;;;;;;;;57.67;47.00;;;;;2.41;100.00;98690.91;4984121;28;47248;-72
2024/01/17 20:03:48;;;;;;;;;54.33;46.33;;;;;2.39;100.00;98690.84;4984406;28;45785;-72
2024/01/17 20:06:13;;;;;;;;;83.67;63.33;;;;;2.42;100.00;98690.03;4998374;28;45246;-73
2024/01/17 20:08:39;;;;;;;;;91.67;71.33;;;;;2.56;100.00;98721.63;5001293;28;45222;-73
2024/01/17 20:11:04;;;;;;;;;106.25;86.25;;;;;2.38;100.00;98683.88;4999775;28;45715;-73
2024/01/17 20:13:30;;;;;;;;;65.00;50.67;;;;;2.45;100.00;98717.06;4994239;28;47465;-72
2024/01/17 20:15:55;;;;;;;;;106.00;94.00;;;;;2.36;100.00;98703.81;5001503;28;45150;-72
2024/01/17 20:18:20;;;;;;;;;64.67;51.67;;;;;2.39;100.00;98723.88;5000917;28;46401;-72